sensor_id;sensor_type;location;lat;lon;timestamp;temperature;humidity
20504;DHT22;10410;51.046;6.980;2022-09-09T00:12:11;17.40;99.90
20504;DHT22;10410;51.046;6.980;2022-09-09T00:26:45;17.30;99.90
20504;DHT22;10410;51.046;6.980;2022-09-09T00:33:49;17.20;99.90
20504;DHT22;10410;51.046;6.980;2022-09-09T00:40:51;17.20;99.90
20504;DHT22;10410;51.046;6.980;2022-09-09T00:47:53;17.20;99.90
20504;DHT22;10410;51.046;6.980;2022-09-09T00:55:09;17.20;99.90
20504;DHT22;10410;51.046;6.980;2022-09-09T01:02:21;17.30;99.90
20504;DHT22;10410;51.046;6.980;2022-09-09T01:16:43;17.20;99.90
20504;DHT22;10410;51.046;6.980;2022-09-09T01:31:35;17.20;99.90
20504;DHT22;10410;51.046;6.980;2022-09-09T01:38:38;17.20;99.90
20504;DHT22;10410;51.046;6.980;2022-09-09T01:45:40;17.10;99.90
20504;DHT22;10410;51.046;6.980;2022-09-09T01:52:45;17.00;99.90
20504;DHT22;10410;51.046;6.980;2022-09-09T02:00:07;17.00;99.90
20504;DHT22;10410;51.046;6.980;2022-09-09T02:07:41;17.00;99.90
20504;DHT22;10410;51.046;6.980;2022-09-09T02:15:07;17.10;99.90
20504;DHT22;10410;51.046;6.980;2022-09-09T02:22:22;17.20;99.90
20504;DHT22;10410;51.046;6.980;2022-09-09T02:29:42;17.30;99.90
20504;DHT22;10410;51.046;6.980;2022-09-09T02:36:44;17.30;99.90
20504;DHT22;10410;51.046;6.980;2022-09-09T02:43:45;17.30;99.90
20504;DHT22;10410;51.046;6.980;2022-09-09T02:58:05;17.30;99.90
20504;DHT22;10410;51.046;6.980;2022-09-09T03:05:08;17.30;99.90
20504;DHT22;10410;51.046;6.980;2022-09-09T03:12:09;17.20;99.90
20504;DHT22;10410;51.046;6.980;2022-09-09T03:19:11;17.10;99.90
20504;DHT22;10410;51.046;6.980;2022-09-09T03:26:12;17.10;99.90
20504;DHT22;10410;51.046;6.980;2022-09-09T03:33:18;17.20;99.90
20504;DHT22;10410;51.046;6.980;2022-09-09T03:40:19;17.20;99.90
20504;DHT22;10410;51.046;6.980;2022-09-09T03:47:21;17.20;99.90
20504;DHT22;10410;51.046;6.980;2022-09-09T03:54:25;17.10;99.90
20504;DHT22;10410;51.046;6.980;2022-09-09T04:01:26;17.20;99.90
20504;DHT22;10410;51.046;6.980;2022-09-09T04:08:27;17.20;99.90
20504;DHT22;10410;51.046;6.980;2022-09-09T04:15:27;17.20;99.90
20504;DHT22;10410;51.046;6.980;2022-09-09T04:22:28;17.10;99.90
20504;DHT22;10410;51.046;6.980;2022-09-09T04:29:28;17.10;99.90
20504;DHT22;10410;51.046;6.980;2022-09-09T04:36:29;17.10;99.90
20504;DHT22;10410;51.046;6.980;2022-09-09T04:43:34;17.10;99.90
20504;DHT22;10410;51.046;6.980;2022-09-09T04:50:36;17.10;99.90
20504;DHT22;10410;51.046;6.980;2022-09-09T04:57:37;17.10;99.90
20504;DHT22;10410;51.046;6.980;2022-09-09T05:04:37;17.20;99.90
20504;DHT22;10410;51.046;6.980;2022-09-09T05:11:38;17.10;99.90
20504;DHT22;10410;51.046;6.980;2022-09-09T05:18:44;17.10;99.90
20504;DHT22;10410;51.046;6.980;2022-09-09T05:25:57;17.10;99.90
20504;DHT22;10410;51.046;6.980;2022-09-09T05:32:58;17.20;99.90
20504;DHT22;10410;51.046;6.980;2022-09-09T05:40:00;17.20;99.90
20504;DHT22;10410;51.046;6.980;2022-09-09T05:47:01;17.10;99.90
20504;DHT22;10410;51.046;6.980;2022-09-09T05:54:02;17.00;99.90
20504;DHT22;10410;51.046;6.980;2022-09-09T06:01:11;17.00;99.90
20504;DHT22;10410;51.046;6.980;2022-09-09T06:08:12;16.90;99.90
20504;DHT22;10410;51.046;6.980;2022-09-09T06:15:12;16.90;99.90
20504;DHT22;10410;51.046;6.980;2022-09-09T06:22:12;17.00;99.90
20504;DHT22;10410;51.046;6.980;2022-09-09T06:29:14;17.00;99.90
20504;DHT22;10410;51.046;6.980;2022-09-09T06:36:18;17.00;99.90
20504;DHT22;10410;51.046;6.980;2022-09-09T06:43:19;17.00;99.90
20504;DHT22;10410;51.046;6.980;2022-09-09T06:50:22;17.10;99.90
20504;DHT22;10410;51.046;6.980;2022-09-09T06:57:23;17.20;99.90
20504;DHT22;10410;51.046;6.980;2022-09-09T07:04:40;17.30;99.90
20504;DHT22;10410;51.046;6.980;2022-09-09T07:11:46;17.60;99.90
20504;DHT22;10410;51.046;6.980;2022-09-09T07:18:48;17.90;99.90
20504;DHT22;10410;51.046;6.980;2022-09-09T07:25:51;18.30;99.90
20504;DHT22;10410;51.046;6.980;2022-09-09T07:32:54;18.70;99.90
20504;DHT22;10410;51.046;6.980;2022-09-09T07:39:57;18.90;99.90
20504;DHT22;10410;51.046;6.980;2022-09-09T07:46:59;19.00;99.90
20504;DHT22;10410;51.046;6.980;2022-09-09T07:54:09;19.10;99.90
20504;DHT22;10410;51.046;6.980;2022-09-09T08:01:24;19.10;99.90
20504;DHT22;10410;51.046;6.980;2022-09-09T08:08:25;19.20;99.90
20504;DHT22;10410;51.046;6.980;2022-09-09T08:15:25;19.30;99.90
20504;DHT22;10410;51.046;6.980;2022-09-09T08:22:26;19.30;99.90
20504;DHT22;10410;51.046;6.980;2022-09-09T08:29:27;19.30;99.90
20504;DHT22;10410;51.046;6.980;2022-09-09T08:36:31;19.30;99.90
20504;DHT22;10410;51.046;6.980;2022-09-09T08:43:34;19.30;99.90
20504;DHT22;10410;51.046;6.980;2022-09-09T08:50:36;19.40;99.90
20504;DHT22;10410;51.046;6.980;2022-09-09T08:57:44;19.50;99.90
20504;DHT22;10410;51.046;6.980;2022-09-09T09:05:02;19.70;99.90
20504;DHT22;10410;51.046;6.980;2022-09-09T09:12:19;19.70;99.90
20504;DHT22;10410;51.046;6.980;2022-09-09T09:19:22;19.70;99.90
20504;DHT22;10410;51.046;6.980;2022-09-09T09:26:33;19.80;99.90
20504;DHT22;10410;51.046;6.980;2022-09-09T09:33:38;19.90;99.90
20504;DHT22;10410;51.046;6.980;2022-09-09T09:40:55;19.90;99.90
20504;DHT22;10410;51.046;6.980;2022-09-09T09:48:03;19.90;99.90
20504;DHT22;10410;51.046;6.980;2022-09-09T09:55:13;20.00;99.90
20504;DHT22;10410;51.046;6.980;2022-09-09T10:02:22;19.90;99.90
20504;DHT22;10410;51.046;6.980;2022-09-09T10:09:38;20.00;99.90
20504;DHT22;10410;51.046;6.980;2022-09-09T10:16:50;20.10;99.90
20504;DHT22;10410;51.046;6.980;2022-09-09T10:39:37;20.70;99.90
20504;DHT22;10410;51.046;6.980;2022-09-09T10:47:14;20.80;99.90
20504;DHT22;10410;51.046;6.980;2022-09-09T10:54:30;21.00;99.90
20504;DHT22;10410;51.046;6.980;2022-09-09T11:08:39;21.10;99.90
20504;DHT22;10410;51.046;6.980;2022-09-09T11:15:42;21.10;99.90
20504;DHT22;10410;51.046;6.980;2022-09-09T11:22:58;21.20;99.90
20504;DHT22;10410;51.046;6.980;2022-09-09T11:44:30;21.20;99.90
20504;DHT22;10410;51.046;6.980;2022-09-09T11:51:33;21.10;99.90
20504;DHT22;10410;51.046;6.980;2022-09-09T11:58:39;21.10;99.90
20504;DHT22;10410;51.046;6.980;2022-09-09T12:05:44;21.10;99.90
20504;DHT22;10410;51.046;6.980;2022-09-09T12:12:46;21.10;99.90
20504;DHT22;10410;51.046;6.980;2022-09-09T12:19:47;21.10;99.90
20504;DHT22;10410;51.046;6.980;2022-09-09T12:26:54;21.00;99.90
20504;DHT22;10410;51.046;6.980;2022-09-09T12:34:10;20.90;99.90
20504;DHT22;10410;51.046;6.980;2022-09-09T12:41:26;20.90;99.90
20504;DHT22;10410;51.046;6.980;2022-09-09T12:48:36;20.90;99.90
20504;DHT22;10410;51.046;6.980;2022-09-09T12:55:38;21.10;99.90
20504;DHT22;10410;51.046;6.980;2022-09-09T13:02:50;21.10;99.90
20504;DHT22;10410;51.046;6.980;2022-09-09T13:09:50;20.70;99.90
20504;DHT22;10410;51.046;6.980;2022-09-09T13:16:57;19.50;99.90
20504;DHT22;10410;51.046;6.980;2022-09-09T13:23:58;19.20;99.90
20504;DHT22;10410;51.046;6.980;2022-09-09T13:31:05;19.10;99.90
20504;DHT22;10410;51.046;6.980;2022-09-09T13:38:08;19.00;99.90
20504;DHT22;10410;51.046;6.980;2022-09-09T13:45:18;18.90;99.90
20504;DHT22;10410;51.046;6.980;2022-09-09T13:52:22;19.10;99.90
20504;DHT22;10410;51.046;6.980;2022-09-09T13:59:23;19.30;99.90
20504;DHT22;10410;51.046;6.980;2022-09-09T14:06:41;19.40;99.90
20504;DHT22;10410;51.046;6.980;2022-09-09T14:13:43;19.40;99.90
20504;DHT22;10410;51.046;6.980;2022-09-09T14:20:44;19.40;99.90
20504;DHT22;10410;51.046;6.980;2022-09-09T14:27:45;19.40;99.90
20504;DHT22;10410;51.046;6.980;2022-09-09T14:34:46;18.90;99.90
20504;DHT22;10410;51.046;6.980;2022-09-09T14:41:48;18.30;99.90
20504;DHT22;10410;51.046;6.980;2022-09-09T14:48:48;17.90;99.90
20504;DHT22;10410;51.046;6.980;2022-09-09T14:55:48;17.70;99.90
20504;DHT22;10410;51.046;6.980;2022-09-09T15:02:52;17.60;99.90
20504;DHT22;10410;51.046;6.980;2022-09-09T15:09:52;17.50;99.90
20504;DHT22;10410;51.046;6.980;2022-09-09T15:16:53;17.70;99.90
20504;DHT22;10410;51.046;6.980;2022-09-09T15:23:54;17.90;99.90
20504;DHT22;10410;51.046;6.980;2022-09-09T15:30:55;18.10;99.90
20504;DHT22;10410;51.046;6.980;2022-09-09T15:37:56;18.20;99.90
20504;DHT22;10410;51.046;6.980;2022-09-09T15:44:57;18.30;99.90
20504;DHT22;10410;51.046;6.980;2022-09-09T15:51:59;18.50;99.90
20504;DHT22;10410;51.046;6.980;2022-09-09T15:59:02;18.60;99.90
20504;DHT22;10410;51.046;6.980;2022-09-09T16:06:03;18.80;99.90
20504;DHT22;10410;51.046;6.980;2022-09-09T16:13:04;19.00;99.90
20504;DHT22;10410;51.046;6.980;2022-09-09T16:20:05;19.10;99.90
20504;DHT22;10410;51.046;6.980;2022-09-09T16:27:08;19.00;99.90
20504;DHT22;10410;51.046;6.980;2022-09-09T16:34:09;18.90;99.90
20504;DHT22;10410;51.046;6.980;2022-09-09T16:41:11;18.90;99.90
20504;DHT22;10410;51.046;6.980;2022-09-09T16:48:11;18.80;99.90
20504;DHT22;10410;51.046;6.980;2022-09-09T16:55:12;18.70;99.90
20504;DHT22;10410;51.046;6.980;2022-09-09T17:02:12;18.70;99.90
20504;DHT22;10410;51.046;6.980;2022-09-09T17:09:13;18.70;99.90
20504;DHT22;10410;51.046;6.980;2022-09-09T17:16:15;18.70;99.90
20504;DHT22;10410;51.046;6.980;2022-09-09T17:23:16;18.70;99.90
20504;DHT22;10410;51.046;6.980;2022-09-09T17:30:17;18.60;99.90
20504;DHT22;10410;51.046;6.980;2022-09-09T17:37:17;18.50;99.90
20504;DHT22;10410;51.046;6.980;2022-09-09T17:44:18;18.30;99.90
20504;DHT22;10410;51.046;6.980;2022-09-09T17:51:22;18.10;99.90
20504;DHT22;10410;51.046;6.980;2022-09-09T17:58:27;18.00;99.90
20504;DHT22;10410;51.046;6.980;2022-09-09T18:05:29;18.00;99.90
20504;DHT22;10410;51.046;6.980;2022-09-09T18:12:32;18.00;99.90
20504;DHT22;10410;51.046;6.980;2022-09-09T18:19:34;18.00;99.90
20504;DHT22;10410;51.046;6.980;2022-09-09T18:26:35;18.00;99.90
20504;DHT22;10410;51.046;6.980;2022-09-09T18:33:38;18.00;99.90
20504;DHT22;10410;51.046;6.980;2022-09-09T18:40:40;18.00;99.90
20504;DHT22;10410;51.046;6.980;2022-09-09T18:47:40;17.90;99.90
20504;DHT22;10410;51.046;6.980;2022-09-09T18:54:42;17.70;99.90
20504;DHT22;10410;51.046;6.980;2022-09-09T19:01:46;17.60;99.90
20504;DHT22;10410;51.046;6.980;2022-09-09T19:08:47;17.50;99.90
20504;DHT22;10410;51.046;6.980;2022-09-09T19:15:54;17.40;99.90
20504;DHT22;10410;51.046;6.980;2022-09-09T19:22:55;17.40;99.90
20504;DHT22;10410;51.046;6.980;2022-09-09T19:29:55;17.30;99.90
20504;DHT22;10410;51.046;6.980;2022-09-09T19:36:56;17.20;99.90
20504;DHT22;10410;51.046;6.980;2022-09-09T19:43:59;17.20;99.90
20504;DHT22;10410;51.046;6.980;2022-09-09T19:51:35;17.10;99.90
20504;DHT22;10410;51.046;6.980;2022-09-09T19:58:29;17.10;99.90
20504;DHT22;10410;51.046;6.980;2022-09-09T20:05:33;17.00;99.90
20504;DHT22;10410;51.046;6.980;2022-09-09T20:12:34;17.00;99.90
20504;DHT22;10410;51.046;6.980;2022-09-09T20:19:34;16.90;99.90
20504;DHT22;10410;51.046;6.980;2022-09-09T20:26:35;16.90;99.90
20504;DHT22;10410;51.046;6.980;2022-09-09T20:33:37;16.90;99.90
20504;DHT22;10410;51.046;6.980;2022-09-09T20:40:38;16.90;99.90
20504;DHT22;10410;51.046;6.980;2022-09-09T20:47:39;17.00;99.90
20504;DHT22;10410;51.046;6.980;2022-09-09T20:54:40;17.00;99.90
20504;DHT22;10410;51.046;6.980;2022-09-09T21:01:41;17.00;99.90
20504;DHT22;10410;51.046;6.980;2022-09-09T21:08:43;17.00;99.90
20504;DHT22;10410;51.046;6.980;2022-09-09T21:15:45;17.00;99.90
20504;DHT22;10410;51.046;6.980;2022-09-09T21:22:46;17.00;99.90
20504;DHT22;10410;51.046;6.980;2022-09-09T21:29:46;17.00;99.90
20504;DHT22;10410;51.046;6.980;2022-09-09T21:36:46;16.90;99.90
20504;DHT22;10410;51.046;6.980;2022-09-09T21:43:51;16.90;99.90
20504;DHT22;10410;51.046;6.980;2022-09-09T21:50:52;16.80;99.90
20504;DHT22;10410;51.046;6.980;2022-09-09T21:57:53;16.70;99.90
20504;DHT22;10410;51.046;6.980;2022-09-09T22:04:54;16.70;99.90
20504;DHT22;10410;51.046;6.980;2022-09-09T22:11:54;16.70;99.90
20504;DHT22;10410;51.046;6.980;2022-09-09T22:18:57;16.80;99.90
20504;DHT22;10410;51.046;6.980;2022-09-09T22:25:58;16.80;99.90
20504;DHT22;10410;51.046;6.980;2022-09-09T22:32:59;16.80;99.90
20504;DHT22;10410;51.046;6.980;2022-09-09T22:40:00;16.80;99.90
20504;DHT22;10410;51.046;6.980;2022-09-09T22:47:01;16.80;99.90
20504;DHT22;10410;51.046;6.980;2022-09-09T22:54:03;16.80;99.90
20504;DHT22;10410;51.046;6.980;2022-09-09T23:01:16;16.70;99.90
20504;DHT22;10410;51.046;6.980;2022-09-09T23:08:17;16.60;99.90
20504;DHT22;10410;51.046;6.980;2022-09-09T23:15:18;16.60;99.90
20504;DHT22;10410;51.046;6.980;2022-09-09T23:22:19;16.60;99.90
20504;DHT22;10410;51.046;6.980;2022-09-09T23:29:20;16.60;99.90
20504;DHT22;10410;51.046;6.980;2022-09-09T23:36:22;16.60;99.90
20504;DHT22;10410;51.046;6.980;2022-09-09T23:43:23;16.60;99.90
20504;DHT22;10410;51.046;6.980;2022-09-09T23:50:26;16.50;99.90
20504;DHT22;10410;51.046;6.980;2022-09-09T23:57:27;16.50;99.90
